Tiempo atmosférico en la estación meteorológica de Coria, Cáceres (313 m.)



Fecha
DESCASC
Temp. máxima en grados centígrados (hora)
DESCASC
Temp. mínima en grados centígrados (hora)
DESCASC
Temp. media en grados centígrados
DESCASC
Racha de viento máxima en m/sg (hora)
DESCASC
Velocidad máxima media en intervalos de 10 minutos(hora)
DESCASC
Precipitaciones diarias en mm
DESCASC
Precipitaciones de 00:00 a 06:00 en mm
DESCASC
Precipitaciones de 06:00 a 12:00 en mm
DESCASC
Precipitaciones de 12:00 a 18:00 en mm
DESCASC
Precipitaciones de 18:00 a 24:00 en mm
DESCASC
22-04-2018 21.8 (17:50) 13 (05:50) 17.4 -- (--) -- (--) 6.2 4.4 0.6 1.2 0
21-04-2018 18.7 (01:10) 12.5 (10:00) 15.6 -- (--) -- (--) 3.6 0 2.6 0.4 0.6
20-04-2018 22.2 (16:50) 14.5 (07:50) 18.4 -- (--) -- (--) 0 0 0 0 0
19-04-2018 25 (16:40) 14.2 (00:00) 19.6 -- (--) -- (--) 0 0 0 0 0
18-04-2018 26.2 (17:20) 9.5 (00:00) 17.9 8.89 (12:50) 5.83 (11:20) 0 0 0 0 0
17-04-2018 22.7 (19:10) 6.6 (00:00) 14.7 5 (14:40) 2.78 (17:00) 0 0 0 0 0
16-04-2018 19.1 (18:40) 5.9 (00:00) 12.5 7.22 (16:40) 3.89 (15:40) 0.2 0.2 0 0 0
15-04-2018 14.2 (18:50) 9 (00:00) 11.6 13.33 (19:10) 5.28 (19:10) 10 0 2.6 4.4 3
14-04-2018 20.5 (16:20) 7 (00:00) 13.8 8.06 (17:10) 4.72 (17:10) 0 0 0 0 0
13-04-2018 16.1 (17:30) 6.7 (00:00) 11.4 6.94 (17:50) 3.33 (17:10) 1 1 0 0 0
12-04-2018 10.3 (11:30) 6.7 (00:00) 8.5 11.94 (17:20) 7.78 (16:10) 11.4 0 0.4 5.6 5.4
11-04-2018 15.3 (18:00) 4.2 (00:00) 9.8 13.89 (16:30) 6.94 (11:30) 0.2 0.2 0 0 0
10-04-2018 12.9 (17:40) 6.6 (00:00) 9.7 14.17 (17:50) 8.33 (17:30) 6.8 0.4 6 0.4 0
09-04-2018 10 (17:10) 5.3 (00:00) 7.7 10 (13:30) 6.67 (17:00) 5 0 3 2 0
08-04-2018 17.6 (16:00) 7 (00:00) 12.3 13.89 (20:50) 8.33 (19:20) 4 0 0.2 0 3.8
07-04-2018 13.9 (13:40) 8.2 (00:00) 11 11.67 (18:40) 4.44 (14:10) 1.4 0 0.6 0.2 0.6
06-04-2018 22.4 (17:50) 8.4 (00:00) 15.4 17.22 (18:40) 10.56 (18:50) 1.8 0 0 0 1.8
05-04-2018 20 (16:20) 4.9 (00:00) 12.5 8.61 (13:40) 5 (17:30) 0 0 0 0 0
04-04-2018 17.5 (16:40) 8.5 (00:00) 13 15.83 (15:10) 10.56 (15:10) 0.6 0.2 0 0.4 0
03-04-2018 17.1 (15:40) 8.3 (00:00) 12.7 23.33 (18:40) 11.39 (18:40) 8 0.2 0.2 3 4.6
02-04-2018 17.2 (13:20) 9.3 (00:00) 13.3 11.11 (18:10) 5.83 (17:30) 4.8 0 0 0.4 4.4
01-04-2018 19.3 (17:20) 5.6 (00:00) 12.4 10.28 (13:20) 5.56 (13:20) 0 0 0 0 0
31-03-2018 16.5 (18:10) 3.7 (00:00) 10.1 9.44 (15:20) 6.67 (15:20) 0 0 0 0 0
30-03-2018 13 (14:30) 3.8 (00:00) 8.4 17.78 (18:30) 10.28 (18:40) 3.6 1.2 0 0.4 2
29-03-2018 16.3 (16:10) 5.8 (00:00) 11 12.78 (18:20) 7.5 (20:50) 0 0 0 0 0
28-03-2018 22 (15:50) 6.9 (00:00) 14.5 12.22 (17:20) 7.22 (16:40) 0 0 0 0 0
27-03-2018 24.4 (17:40) 7.7 (00:00) 16 10 (17:30) 4.72 (17:40) 0 0 0 0 0
26-03-2018 18.9 (17:30) 4.7 (00:00) 11.8 10.83 (20:20) 5 (08:30) 0 0 0 0 0

Gráficas

Temp. máximas Temp. mínimas Temp. medias Precipitaciones Rachas de viento máximas Velocidades máximas media en intervalos de 10 minutos

Datos horarios

Fecha y hora oficial Temperatura (ºC) Velocidad del viento (km/h) Dirección del viento Racha (km/h) Dirección de racha Precipitación (mm) Presión (hPa) Tendencia (hPa) Humedad (%)
2018-04-24 23:00:00 20.3 4 Nordeste 13 Este 0 978.9 1.4 55
2018-04-24 22:00:00 21 10 Este 14 Este 0 978.1 0.7 55
2018-04-24 21:00:00 21.7 9 Este 19 Este 0 977.6 0.1 59
2018-04-24 20:00:00 24.5 11 Este 15 Sudeste 0 977.5 -0.2 50
2018-04-24 19:00:00 26.5 7 Este 15 Este 0 977.4 -0.9 42
2018-04-24 18:00:00 26.7 6 Este 20 Este 0 977.5 -1 39
2018-04-24 17:00:00 26.3 15 Este 27 Sudeste 0 977.7 -1.3 37
2018-04-24 16:00:00 26.3 13 Este 23 Este 0 978.3 -1.2 38
2018-04-24 15:00:00 25 6 Este 16 Este 0 978.5 -1.3 40
2018-04-24 14:00:00 24.1 9 Este 40 Sudeste 0 979 -0.6 39
2018-04-24 13:00:00 23.7 22 Este 37 Este 0 979.5 -0.1 39
2018-04-24 12:00:00 22.5 21 Este 44 Este 0 979.8 0.7 39
2018-04-24 11:00:00 21 19 Este 33 Este 0 979.6 1 42
2018-04-24 10:00:00 18.6 21 Este 35 Este 0 979.6 1.2 49
2018-04-24 09:00:00 16.6 13 Este 21 Este 0 979.1 1.1 54
2018-04-24 08:00:00 16 12 Este 27 Este 0 978.6 0.2 53
2018-04-24 07:00:00 17.8 14 Nordeste 37 Este 0 978.4 -0.1 44
2018-04-24 06:00:00 18.1 21 Este 34 Este 0 978 -0.8 47
2018-04-24 05:00:00 17 17 Este 27 Este 0 978.4 -0.1 69
2018-04-24 04:00:00 18 5 Este 8 Este 0 978.5 -0.1 71
2018-04-24 03:00:00 17.2 5 Nordeste 15 Este 0 978.8 0.2 75
2018-04-24 02:00:00 19.2 4 Nordeste 16 Norte 0 978.5 0.2 65
2018-04-24 01:00:00 19.3 6 Nordeste 13 Norte 0 978.6 0.7 62
2018-04-24 00:00:00 20.5 8 Nordeste 18 Este 0 978.6 1.1 56
2018-04-23 23:00:00 21.5 9 Nordeste 24 Nordeste 0 978.3 0.9 54
2018-04-23 22:00:00 21.5 11 Este 19 Este 0 977.9 0.3 57
2018-04-23 21:00:00 22.6 8 Este 14 Este 0 977.5 -0.3 58
2018-04-23 20:00:00 24.9 7 Este 19 Este 0 977.4 -1 52
2018-04-23 19:00:00 26.4 6 Nordeste 17 Nordeste 0 977.6 -1.9 46
2018-04-23 18:00:00 26.3 7 Norte 19 Este 0 977.8 -2.2 43
2018-04-23 17:00:00 25.5 8 Este 18 Este 0 978.4 -2 44
2018-04-23 16:00:00 23.9 8 Nordeste 20 Este 0 979.5 -0.9 49
2018-04-23 15:00:00 22.7 4 Este 19 Este 0 980 0.1 56
2018-04-23 14:00:00 20.7 14 Este 27 Este 0 980.4 0.2 59
2018-04-23 13:00:00 19.6 18 Este 30 Este 0 980.4 0.1 63
2018-04-23 12:00:00 18.6 16 Este 29 Este 0 979.9 -0.3 63
2018-04-23 11:00:00 17.1 3 Norte 7 Sudeste 0 980.2 0.2 66
2018-04-23 10:00:00 16.8 7 Este 22 Este 0 980.3 1 73
2018-04-23 09:00:00 15.2 10 Este 20 Este 0 980.2 1.1 78
2018-04-23 08:00:00 16 9 Este 18 Este 0 980 0.6 71
2018-04-23 07:00:00 15.6 10 Nordeste 18 Nordeste 0 979.3 0.5 71
2018-04-23 06:00:00 15 10 Este 15 Este 0 979.1 0.8 76
2018-04-23 05:00:00 13.9 4 Este 17 Sudeste 0 979.4 0.7 84
2018-04-23 04:00:00 15.3 9 Este 20 Nordeste 0 978.8 0.4 78
2018-04-23 03:00:00 17 8 Nordeste 22 Nordeste 0 978.3 0.5 71
2018-04-23 02:00:00 15.5 6 Este 13 Nordeste 0 978.7 0.8 85
2018-04-23 01:00:00 15.4 8 Nordeste 17 Sudeste 0 978.4 0.5 88
2018-04-23 00:00:00 18 10 Nordeste 23 Norte 0 977.8 0.3 74
2018-04-22 23:00:00 18.2 11 Norte 20 Norte 0 977.9 0.8 73
2018-04-22 22:00:00 18.4 10 Norte 18 Norte 0 977.9 1.3 73
2018-04-22 21:00:00 19.4 6 Nordeste 14 Este 0 977.5 0.7 67
2018-04-22 20:00:00 20.1 10 Este 22 Sudeste 0 977.1 0.2 71
2018-04-22 19:00:00 21 14 Este 23 Sudeste 0 976.6 -1.1 68
2018-04-22 18:00:00 21.3 12 Este 27 Nordeste 0 976.8 -1 59
2018-04-22 17:00:00 20.2 14 Este 26 Este 0 976.9 -1 65
2018-04-22 16:00:00 20.1 15 Este 33 Este 0 977.7 -1.5 60
2018-04-22 15:00:00 19.9 17 Este 35 Este 0 977.8 -2.4 64
2018-04-22 14:00:00 16.5 17 Nordeste 38 Nordeste 0 977.9 -0.4 80
2018-04-22 13:00:00 16 10 Este 21 Este 1.2 979.2 -0.2 86
2018-04-22 12:00:00 15.3 17 Sudeste 33 Este 0.2 980.2 1.9 85
2018-04-22 11:00:00 14.9 19 Este 43 Nordeste 0 978.3 0.3 88
2018-04-22 10:00:00 13.5 7 Este -- -- 0 979.4 1.9 93
2018-04-22 09:00:00 13.3 12 Nordeste -- -- 0 978.3 -1 92
2018-04-22 08:00:00 13.5 5 Este 30 Nordeste 0 978 -0.6 89
2018-04-22 07:00:00 13.6 15 Este 31 Nordeste 0.4 977.5 -2.6 87
2018-04-22 06:00:00 13.2 -- -- -- -- 1 979.3 0.3 93
2018-04-22 05:00:00 13.6 -- -- -- -- 0 978.6 -2.4 90
2018-04-22 04:00:00 13.3 -- -- -- -- 0.4 980.1 -1.9 92
2018-04-22 03:00:00 13.1 -- -- -- -- 1.6 979 -2.2 94
2018-04-22 02:00:00 13.7 17 Este -- -- 1 981 1 93
2018-04-22 01:00:00 14.2 22 Sudeste 38 Nordeste 0.4 982 2.3 90
2018-04-22 00:00:00 14.9 7 Este 27 Nordeste 0.6 981.2 2.1 86
2018-04-21 23:00:00 15.7 15 Este 35 Sudeste 0 980 1.4 78
2018-04-21 22:00:00 15.4 12 Este 18 Este 0 979.7 1.8 83
2018-04-21 21:00:00 16.4 5 Este 29 Este 0 979.1 -0.4 80
2018-04-21 20:00:00 17.3 19 Este 31 Este 0 978.6 -2.7 73
2018-04-21 19:00:00 16.9 14 Este 42 Nordeste 0 977.9 -3.7 72
2018-04-21 18:00:00 15.2 19 Este 36 Nordeste 0.4 979.5 -1.6 82
2018-04-21 17:00:00 15.4 10 Noroeste 22 Oeste 0 981.3 1.6 81
2018-04-21 16:00:00 16.2 9 Sudeste -- -- 0 981.6 3.4 76
2018-04-21 15:00:00 15.8 -- -- -- -- 0 981.1 3.2 73
2018-04-21 14:00:00 15.7 -- -- -- -- 0 979.7 0.6 71
2018-04-21 13:00:00 16.7 24 Este 39 Este 0 978.2 -3.4 70
2018-04-21 12:00:00 14.8 16 Este -- -- 0 977.9 -3.2 79
2018-04-21 11:00:00 13.1 -- -- -- -- 0.8 979.1 -1.3 84
2018-04-21 10:00:00 12.6 -- -- -- -- 1.4 981.6 1.8 91
2018-04-21 09:00:00 13 -- -- -- -- 0.4 981.1 2.5 84
2018-04-21 08:00:00 14.4 -- -- -- -- 0 980.4 1.6 71
2018-04-21 07:00:00 15 -- -- -- -- 0 979.8 0.9 67
2018-04-21 06:00:00 15.5 -- -- -- -- 0 978.6 -0.8 64
2018-04-21 05:00:00 15.7 -- -- -- -- 0 978.8 -0.4 64
2018-04-21 04:00:00 16 -- -- -- -- 0 978.9 0.6 64
2018-04-21 03:00:00 17.2 -- -- -- -- 0 979.4 -0.3 59
2018-04-21 02:00:00 18 -- -- -- -- 0 979.2 -0.4 56
2018-04-21 01:00:00 18.6 -- -- -- -- 0 978.3 -1.2 52
2018-04-21 00:00:00 17.7 15 Este 28 Este 0 979.7 0.9 56
2018-04-20 23:00:00 18.1 15 Este 26 Este 0 979.6 1.1 56
2018-04-20 22:00:00 18.2 11 Este 20 Este 0 979.5 1.2 56
2018-04-20 21:00:00 19.3 14 Este 33 Sudeste 0 978.8 0.4 54
2018-04-20 20:00:00 21.2 17 Este -- -- 0 978.5 0.1 48
2018-04-20 19:00:00 21.8 -- -- -- -- 0 978.3 -0.6 47
2018-04-20 18:00:00 22 -- -- -- -- 0 978.4 -1 44
2018-04-20 17:00:00 22.1 -- -- -- -- 0 978.4 -1.3 45
2018-04-20 16:00:00 21.4 -- -- -- -- 0 978.9 -1.1 46
2018-04-20 15:00:00 20.6 -- -- -- -- 0 979.4 -1.1 49
2018-04-20 14:00:00 20 -- -- -- -- 0 979.7 -0.5 52
2018-04-20 13:00:00 19.7 -- -- -- -- 0 980 -0.1 55
2018-04-20 12:00:00 18.8 -- -- -- -- 0 980.5 0.4 55
2018-04-20 11:00:00 18.1 -- -- -- -- 0 980.2 -0.1 56
2018-04-20 10:00:00 16.6 -- -- -- -- 0 980.1 -0.2 61
2018-04-20 09:00:00 15.4 -- -- -- -- 0 980.1 -0.1 63
2018-04-20 08:00:00 14.5 -- -- -- -- 0 980.3 -0.1 65
2018-04-20 07:00:00 15 -- -- -- -- 0 980.3 -0.1 64
2018-04-20 06:00:00 15 18 Este -- -- 0 980.2 0 66
2018-04-20 05:00:00 15.6 -- -- -- -- 0 980.4 0.2 64
2018-04-20 04:00:00 16.6 22 Este 35 Este 0 980.4 0.2 60
2018-04-20 03:00:00 17.8 -- -- -- -- 0 980.2 -0.2 55
2018-04-20 02:00:00 17.5 17 Este -- -- 0 980.2 -0.1 56
2018-04-20 01:00:00 18.3 17 Este 28 Este 0 980.2 -0.1 48
2018-04-20 00:00:00 18.3 11 Este 20 Este 0 980.4 0.4 48
2018-04-19 23:00:00 18.9 11 Este 18 Este 0 980.3 0.3 49
2018-04-19 22:00:00 20.3 9 Este 14 Este 0 980.3 0.1 46
2018-04-19 21:00:00 20.7 9 Este 19 Este 0 980 -0.3 49
2018-04-19 20:00:00 23.2 14 Este 30 Sudeste 0 980 -0.6 42
2018-04-19 19:00:00 24.3 -- -- -- -- 0 980.2 -1.2 39
2018-04-19 18:00:00 24.5 -- -- -- -- 0 980.3 -1.7 35
2018-04-19 17:00:00 24.7 -- -- -- -- 0 980.6 -2 33
2018-04-19 16:00:00 24.2 -- -- -- -- 0 981.4 -1.9 35
2018-04-19 15:00:00 23.6 29 Este -- -- 0 982 -1.7 40
2018-04-19 14:00:00 22.8 25 Este 46 Este 0 982.6 -1.3 43
2018-04-19 13:00:00 21.7 26 Este 44 Este 0 983.3 -0.6 46
2018-04-19 12:00:00 20.5 29 Este -- -- 0 983.7 0.2 46
2018-04-19 11:00:00 19.2 27 Este 44 Este 0 983.9 0.7 49
2018-04-19 10:00:00 17.3 25 Este 41 Este 0 983.9 1 55
2018-04-19 09:00:00 15.3 19 Este 34 Este 0 983.5 0.6 63
2018-04-19 08:00:00 14.3 17 Este 34 Este 0 983.2 0.3 64
2018-04-19 07:00:00 15 22 Este 35 Este 0 982.9 -0.1 62
2018-04-19 06:00:00 15.1 19 Este 30 Este 0 982.9 -0.3 63
2018-04-19 05:00:00 15.4 19 Este 31 Este 0 982.9 -0.8 65
2018-04-19 04:00:00 15.2 14 Este 21 Este 0 983 -0.6 72
2018-04-19 03:00:00 15 8 Este 13 Este 0 983.2 -0.6 79
2018-04-19 02:00:00 15.9 3 Noroeste 11 Noroeste 0 983.7 -0.1 75
2018-04-19 01:00:00 17.5 4 Sudeste 5 Sudeste 0 983.6 0.1 66
2018-04-19 00:00:00 19 4 Este 7 Nordeste 0 983.8 0.8 60
2018-04-18 23:00:00 19.5 4 Este 9 Este 0 983.8 0.9 57
2018-04-18 22:00:00 20.4 3 Este 12 Este 0 983.5 0.4 57
2018-04-18 21:00:00 22.7 7 Este 16 Este 0 983 -0.2 50
2018-04-18 20:00:00 24.7 11 Este 20 Sudeste 0 982.9 -0.8 44
2018-04-18 19:00:00 25.7 14 Este 25 Sudeste 0 983.1 -1.3 39
2018-04-18 18:00:00 26 14 Este 28 Sudeste 0 983.2 -1.8 37
2018-04-18 17:00:00 25.7 13 Este 26 Este 0 983.7 -1.6 41
2018-04-18 16:00:00 25.6 12 Este 28 Este 0 984.4 -1.3 41
2018-04-18 15:00:00 24.6 12 Sudeste 28 Este 0 985 -0.8 39
2018-04-18 14:00:00 23.9 17 Este 31 Este 0 985.3 -0.5 40
2018-04-18 13:00:00 22.6 21 Este 32 Sudeste 0 985.7 0.1 48
2018-04-18 12:00:00 20.7 18 Este 31 Este 0 985.8 0.1 51
2018-04-18 11:00:00 17.4 18 Este 28 Este 0 985.8 0.4 61
2018-04-18 10:00:00 14.9 16 Este 26 Este 0 985.6 0.3 68
2018-04-18 09:00:00 12 5 Este 9 Este 0 985.7 0.3 91
2018-04-18 08:00:00 9.6 6 Este 8 Este 0 985.4 0 94
2018-04-18 07:00:00 9.5 0 Calma 8 Este 0 985.3 -0.2 92
2018-04-18 06:00:00 10.2 3 Sudeste 6 Este 0 985.4 -0.5 90
2018-04-18 05:00:00 10.5 3 Noroeste 6 Oeste 0 985.4 -0.7 89
2018-04-18 04:00:00 11.7 4 Este 6 Este 0 985.5 -0.4 83
2018-04-18 03:00:00 12.1 0 Calma 6 Noroeste 0 985.9 0 80
2018-04-18 02:00:00 12.5 3 Noroeste 6 Noroeste 0 986.1 0 80
2018-04-18 01:00:00 13.8 3 Este 5 Sudeste 0 985.9 0 75
2018-04-18 00:00:00 14.9 3 Sudeste 10 Norte 0 985.9 0.4 68
2018-04-17 23:00:00 17.3 7 Norte 12 Norte 0 986.1 0.5 57
2018-04-17 22:00:00 17.6 6 Norte 9 Norte 0 985.9 0.2 56
2018-04-17 21:00:00 20.2 3 Noroeste 6 Oeste 0 985.5 -0.4 52
2018-04-17 20:00:00 22.1 5 Oeste 12 Sudoeste 0 985.6 -0.8 45
2018-04-17 19:00:00 22.5 3 Sudoeste 10 Oeste 0 985.7 -1 43
2018-04-17 18:00:00 21.8 6 Oeste 14 Oeste 0 985.9 -1.2 46
2018-04-17 17:00:00 21.6 10 Sudoeste 16 Sudoeste 0 986.4 -1.1 47
2018-04-17 16:00:00 20.3 4 Oeste 16 Sudoeste 0 986.7 -1.1 51
2018-04-17 15:00:00 19.6 6 Sur 18 Sur 0 987.1 -0.8 54
2018-04-17 14:00:00 18.8 5 Sur 13 Sudoeste 0 987.5 -0.4 55
2018-04-17 13:00:00 17.8 6 Sudoeste 13 Sudoeste 0 987.8 0.1 57
2018-04-17 12:00:00 16.1 5 Sudeste 11 Sudeste 0 987.9 0.6 70
2018-04-17 11:00:00 13.6 5 Este 12 Este 0 987.9 1 75
2018-04-17 10:00:00 11.2 6 Sudeste 12 Sudeste 0 987.7 1.4 87
2018-04-17 09:00:00 8.8 6 Este 10 Este 0 987.3 1.1 96
2018-04-17 08:00:00 6.6 0 Calma 6 Sudeste 0 986.9 0.9 95
2018-04-17 07:00:00 7.3 3 Sudeste 6 Este 0 986.3 0.4 93
2018-04-17 06:00:00 7.6 3 Noroeste 8 Este 0 986.2 0.3 92
2018-04-17 05:00:00 8.2 3 Este 7 Noroeste 0 986 0.5 90
2018-04-17 04:00:00 9.5 3 Nordeste 12 Este 0 985.9 0.8 81
2018-04-17 03:00:00 9.8 8 Este 12 Este 0 985.9 1.1 82
2018-04-17 02:00:00 10.3 2 Sudeste 5 Noroeste 0 985.5 1 78
2018-04-17 01:00:00 11.3 3 Noroeste 7 Noroeste 0 985.1 1.1 75
2018-04-17 00:00:00 11.9 3 Noroeste 5 Oeste 0 984.8 1.5 73
2018-04-16 23:00:00 12.6 3 Noroeste 5 Sudoeste 0 984.5 1.5 71
2018-04-16 22:00:00 13.7 0 Calma 5 Sudoeste 0 984 1.1 67
2018-04-16 21:00:00 15.9 3 Oeste 17 Oeste 0 983.3 0.6 60
2018-04-16 20:00:00 18.6 6 Sudoeste 23 Sudoeste 0 983 0 49
2018-04-16 19:00:00 18.6 10 Sudoeste 21 Sudoeste 0 982.9 -0.4 49
2018-04-16 18:00:00 18.7 10 Sudoeste 22 Sudoeste 0 982.7 -0.8 46
2018-04-16 17:00:00 18.4 11 Sudoeste 26 Oeste 0 983 -0.7 49
2018-04-16 16:00:00 17.4 12 Sudoeste 24 Sudoeste 0 983.3 -0.8 50
2018-04-16 15:00:00 16.1 9 Oeste 24 Oeste 0 983.5 -0.5 53
2018-04-16 14:00:00 15.2 11 Oeste 22 Oeste 0 983.7 -0.1 52
2018-04-16 13:00:00 14.2 12 Oeste 23 Oeste 0 984.1 0.7 62
2018-04-16 12:00:00 13.1 8 Noroeste 21 Noroeste 0 984 1 60
2018-04-16 11:00:00 11.4 9 Noroeste 18 Oeste 0 983.8 1.6 76
2018-04-16 10:00:00 9 8 Oeste 10 Oeste 0 983.4 1.8 93
2018-04-16 09:00:00 7 5 Oeste 8 Oeste 0 983 1.5 96
2018-04-16 08:00:00 6 5 Oeste 8 Noroeste 0 982.2 1 96
2018-04-16 07:00:00 6.1 6 Noroeste 10 Noroeste 0 981.6 0.4 96
2018-04-16 06:00:00 6.7 7 Noroeste 12 Noroeste 0 981.5 0.4 95
2018-04-16 05:00:00 6.4 5 Noroeste 9 Oeste 0 981.2 0.6 96
2018-04-16 04:00:00 7 6 Noroeste 15 Noroeste 0 981.2 0.3 93
2018-04-16 03:00:00 7 6 Noroeste 13 Noroeste 0 981.1 0.6 93
2018-04-16 02:00:00 7.7 7 Oeste 13 Oeste 0 980.6 0.6 92
2018-04-16 01:00:00 8.6 5 Sudoeste 19 Noroeste 0.2 980.9 1.6 93
2018-04-16 00:00:00 9 2 Noroeste 11 Oeste 0 980.5 1.3 95
2018-04-15 23:00:00 9.8 6 Oeste 14 Sudoeste 0 980 1.2 95
2018-04-15 22:00:00 10.4 4 Oeste 27 Noroeste 1.2 979.3 1.2 93
2018-04-15 21:00:00 11.7 19 Oeste 33 Oeste 0 979.2 0.8 91
2018-04-15 20:00:00 12.2 16 Oeste 48 Oeste 1.4 978.8 0 95
2018-04-15 19:00:00 14.1 11 Sudoeste 24 Sur 0.4 978.1 -1.8 98
2018-04-15 18:00:00 13.8 7 Sur 24 Sur 2 978.4 -2.2 97
2018-04-15 17:00:00 13.8 15 Sudeste 25 Sudeste 0.2 978.8 -2.5 97
2018-04-15 16:00:00 13.3 11 Sudeste 19 Sudeste 1 979.9 -1.7 97
2018-04-15 15:00:00 12.9 8 Sudeste 16 Sur 0.6 980.6 -1.2 98
2018-04-15 14:00:00 12.5 10 Sudeste 18 Sudeste 0.2 981.3 -0.4 98
2018-04-15 13:00:00 11.9 7 Sudeste 13 Sudeste 0.4 981.6 -0.1 98
2018-04-15 12:00:00 11.2 9 Sudeste 18 Sudeste 0.2 981.8 0 98
2018-04-15 11:00:00 11 5 Sudeste 13 Sudeste 0 981.7 0.1 97
2018-04-15 10:00:00 10.6 8 Sudeste 13 Sudeste 0.4 981.7 0.5 97
2018-04-15 09:00:00 10.5 4 Sur 11 Sudoeste 1.4 981.8 0.3 96
2018-04-15 08:00:00 10.7 5 Sudoeste 13 Oeste 0.6 981.6 0 92
2018-04-15 07:00:00 11.1 6 Sur 13 Sudoeste 0 981.2 -0.5 85
2018-04-15 06:00:00 11.3 8 Oeste 22 Oeste 0 981.5 -0.5 83
2018-04-15 05:00:00 11.8 7 Sudoeste 17 Sudoeste 0 981.6 0 84
2018-04-15 04:00:00 12 13 Oeste 23 Oeste 0 981.7 -0.3 81
2018-04-15 03:00:00 12.3 6 Sudoeste 11 Oeste 0 982 0.1 79
2018-04-15 02:00:00 12.6 6 Sudoeste 11 Oeste 0 981.6 -0.2 75
2018-04-15 01:00:00 12.5 5 Oeste 13 Oeste 0 982 0.8 73
2018-04-15 00:00:00 12.3 9 Oeste 16 Oeste 0 981.9 1.4 72
2018-04-14 23:00:00 12.6 6 Oeste 15 Oeste 0 981.8 1.6 71
2018-04-14 22:00:00 13.2 9 Oeste 21 Oeste 0 981.2 1.2 71
2018-04-14 21:00:00 15.6 7 Oeste 24 Sudoeste 0 980.5 1 61
2018-04-14 20:00:00 19 11 Sudoeste 20 Sudoeste 0 980.2 0 49
2018-04-14 19:00:00 19.3 12 Sudoeste 24 Oeste 0 980 -0.3 53
2018-04-14 18:00:00 19.6 11 Sudoeste 29 Oeste 0 979.5 -0.6 49
2018-04-14 17:00:00 19.2 15 Sudoeste 26 Sudoeste 0 980.2 -0.6 53
2018-04-14 16:00:00 18.8 10 Sudoeste 22 Oeste 0 980.3 -0.6 52
2018-04-14 15:00:00 19.3 8 Sudoeste 21 Sudoeste 0 980.1 -0.4 52
2018-04-14 14:00:00 18.2 8 Sudoeste 17 Sudoeste 0 980.8 0.7 51
2018-04-14 13:00:00 17.4 5 Sur 14 Sur 0 980.9 1.3 56
2018-04-14 12:00:00 15.7 5 Sudoeste 15 Oeste 0 980.5 1.1 68
2018-04-14 11:00:00 13.6 6 Oeste 11 Oeste 0 980.1 1.3 79
2018-04-14 10:00:00 11 5 Oeste 9 Sudoeste 0 979.6 1.5 89
2018-04-14 09:00:00 9.1 3 Este 7 Sudeste 0 979.4 1.5 93
2018-04-14 08:00:00 7 4 Noroeste 12 Este 0 978.8 1.3 94
2018-04-14 07:00:00 8.5 5 Sudeste 14 Norte 0 978.1 0.6 85
2018-04-14 06:00:00 8 6 Noroeste 18 Norte 0 977.9 0.8 87
2018-04-14 05:00:00 10 9 Norte 19 Norte 0 977.5 0.7 83
2018-04-14 04:00:00 8.9 8 Noroeste 14 Noroeste 0 977.5 0.9 89
2018-04-14 03:00:00 9.7 5 Norte 12 Noroeste 0 977.1 1 84
2018-04-14 02:00:00 10.1 5 Noroeste 12 Norte 0 976.8 1.2 82
2018-04-14 01:00:00 10.5 5 Noroeste 10 Sudoeste 0 976.6 2.1 81
2018-04-14 00:00:00 11.6 4 Este 11 Norte 0 976.1 2.5 77
2018-04-13 23:00:00 12.2 5 Norte 9 Noroeste 0 975.6 2.7 74
2018-04-13 22:00:00 12.3 3 Noroeste 5 Noroeste 0 974.5 2.1 73
2018-04-13 21:00:00 14 3 Sudoeste 9 Sudoeste 0 973.6 1.8 66
2018-04-13 20:00:00 15.6 6 Oeste 18 Oeste 0 972.9 1.4 58
2018-04-13 19:00:00 15.2 7 Noroeste 15 Oeste 0 972.4 0.9 58
2018-04-13 18:00:00 15.7 10 Noroeste 25 Oeste 0 971.8 0.3 55
2018-04-13 17:00:00 15.3 6 Noroeste 19 Oeste 0 971.5 0.2 52
2018-04-13 16:00:00 15.2 8 Noroeste 21 Oeste 0 971.5 0.4 51
2018-04-13 15:00:00 14.7 10 Oeste 21 Oeste 0 971.5 0.7 59
2018-04-13 14:00:00 12.7 3 Noroeste 16 Sudeste 0 971.3 1.3 63
2018-04-13 13:00:00 12.1 4 Sur 12 Sudeste 0 971.1 1.8 71
2018-04-13 12:00:00 10.4 4 Este 14 Este 0 970.8 2.4 84
2018-04-13 11:00:00 10.4 8 Este 13 Este 0 970 2.2 85
2018-04-13 10:00:00 9.1 5 Nordeste 10 Este 0 969.3 2.3 93
2018-04-13 09:00:00 7.6 4 Este 9 Este 0 968.4 2.1 99
2018-04-13 08:00:00 7.3 6 Este 10 Nordeste 0 967.8 1.8 98
2018-04-13 07:00:00 7.2 5 Este 10 Este 0 967 1 98
2018-04-13 06:00:00 7.3 6 Este 8 Este 0 966.3 0.2 98
2018-04-13 05:00:00 7.3 6 Sudeste 11 Este 0 966 0 98
2018-04-13 04:00:00 7.3 5 Este 10 Este 0.2 966 0.5 98
2018-04-13 03:00:00 7.2 7 Este 11 Este 0.4 966.1 0.9 97
2018-04-13 02:00:00 7.1 7 Este 10 Este 0.4 966 1.2 97
2018-04-13 01:00:00 7 5 Este 12 Este 0 965.5 1.5 96
2018-04-13 00:00:00 6.7 0 Calma 7 Sudoeste 0 965.2 2.1 96
2018-04-12 23:00:00 7.2 3 Oeste 17 Sudoeste 0 964.8 2.4 95
2018-04-12 22:00:00 7.7 13 Sudoeste 26 Sudoeste 0.2 964 1.6 96
2018-04-12 21:00:00 8.2 5 Este 24 Este 0 963.1 0.7 98
2018-04-12 20:00:00 7.7 15 Este 34 Este 3 962.4 -0.5 97
2018-04-12 19:00:00 8.1 24 Este 39 Este 2.2 962.4 -1.2 97
2018-04-12 18:00:00 8.8 21 Este 43 Este 0.4 962.4 -2.9 94
2018-04-12 17:00:00 9.1 22 Este 41 Este 0 962.9 -3.9 93
2018-04-12 16:00:00 8.8 26 Este 41 Este 0.4 963.6 -3.5 95
2018-04-12 15:00:00 8.8 19 Sudeste 32 Sudeste 1.8 965.3 -2.4 96
2018-04-12 14:00:00 9.2 14 Sur 26 Sudeste 1.8 966.8 -1.1 94
2018-04-12 13:00:00 9.4 9 Sudeste 27 Sur 1.2 967.1 -1.5 93
2018-04-12 12:00:00 10.2 14 Sur 24 Sudeste 0 967.7 -1.3 87
2018-04-12 11:00:00 10.1 8 Sur 18 Sudeste 0 967.9 -1.1 92
2018-04-12 10:00:00 9 8 Sur 15 Sur 0.4 968.6 -0.3 96
2018-04-12 09:00:00 8.6 6 Sudoeste 13 Sudoeste 0 969 -0.4 95
2018-04-12 08:00:00 8 8 Sudoeste 15 Sudoeste 0 969 -0.7 95
2018-04-12 07:00:00 7.8 5 Sudoeste 13 Oeste 0 968.9 -1.3 96
2018-04-12 06:00:00 7.4 8 Oeste 11 Oeste 0 969.4 -1.2 96
2018-04-12 05:00:00 7.1 6 Oeste 12 Oeste 0 969.7 -1.2 95
2018-04-12 04:00:00 6.8 7 Oeste 14 Oeste 0 970.2 -0.9 93
2018-04-12 03:00:00 7.5 4 Oeste 13 Oeste 0 970.6 -0.2 89
2018-04-12 02:00:00 7.8 6 Oeste 26 Oeste 0 970.9 -0.1 88
2018-04-12 01:00:00 7.4 11 Oeste 17 Sudoeste 0 971.1 0.7 89
2018-04-12 00:00:00 7.8 9 Sudoeste 26 Oeste 0 970.8 1.4 83
2018-04-11 23:00:00 9.5 19 Oeste 31 Oeste 0 971 1.9 76
2018-04-11 22:00:00 11 22 Oeste 34 Oeste 0 970.4 1.8 68
2018-04-11 21:00:00 11.8 19 Oeste 35 Oeste 0 969.4 1.1 62
2018-04-11 20:00:00 12.9 21 Oeste 40 Oeste 0 969.1 1 54
2018-04-11 19:00:00 14.2 18 Oeste 40 Oeste 0 968.6 0.3 45
2018-04-11 18:00:00 15.3 14 Noroeste 45 Noroeste 0 968.3 -0.1 46
2018-04-11 17:00:00 14.3 17 Oeste 50 Oeste 0 968.1 -0.8 46
2018-04-11 16:00:00 14.2 21 Oeste 45 Oeste 0 968.3 -1 47
2018-04-11 15:00:00 13.5 17 Oeste 45 Oeste 0 968.4 -0.6 49
2018-04-11 14:00:00 12.7 13 Oeste 37 Noroeste 0 968.9 0.2 50
2018-04-11 13:00:00 11.9 22 Noroeste 48 Noroeste 0 969.3 1 49
2018-04-11 12:00:00 10.6 24 Noroeste 46 Noroeste 0 969 1.2 55
2018-04-11 11:00:00 9.1 18 Noroeste 39 Noroeste 0 968.7 2.1 60
2018-04-11 10:00:00 7.3 15 Noroeste 41 Noroeste 0 968.3 2.4 67
2018-04-11 09:00:00 5.8 15 Noroeste 28 Noroeste 0 967.8 2.4 74
2018-04-11 08:00:00 4.8 15 Noroeste 39 Noroeste 0 966.6 2.1 81
2018-04-11 07:00:00 5.4 15 Noroeste 29 Oeste 0 965.9 2 81
2018-04-11 06:00:00 4.5 8 Oeste 19 Oeste 0 965.4 1.5 91
2018-04-11 05:00:00 4.9 7 Noroeste 18 Noroeste 0 964.5 0.8 91
2018-04-11 04:00:00 4.6 5 Noroeste 20 Noroeste 0 963.9 0.6 93
2018-04-11 03:00:00 5 6 Oeste 16 Oeste 0 963.9 0.9 94
2018-04-11 02:00:00 5.6 7 Oeste 12 Oeste 0 963.7 1.3 92
2018-04-11 01:00:00 6.3 9 Oeste 17 Oeste 0.2 963.3 1.7 90
2018-04-11 00:00:00 6.6 12 Oeste 22 Oeste 0 963 2.3 81
2018-04-10 23:00:00 7.5 14 Oeste 21 Oeste 0 962.4 2.4 76
2018-04-10 22:00:00 7.9 15 Oeste 33 Oeste 0 961.6 2 74
2018-04-10 21:00:00 8 19 Oeste 40 Oeste 0 960.7 1.2 73
2018-04-10 20:00:00 9.2 21 Oeste 40 Oeste 0 960 0.7 69
2018-04-10 19:00:00 10.5 15 Noroeste 41 Noroeste 0 959.6 -0.2 68
2018-04-10 18:00:00 8.7 19 Noroeste -- -- 0 959.5 -1.6 76
2018-04-10 17:00:00 12 30 Oeste 47 Oeste 0 959.3 -2.8 70
2018-04-10 16:00:00 10 21 Oeste 40 Oeste 0.2 959.8 -3.4 86
2018-04-10 15:00:00 11.2 18 Sudoeste 32 Sudoeste 0 961.1 -2.8 84
2018-04-10 14:00:00 10.4 15 Oeste -- -- -- 962.1 -1.7 83
2018-04-10 13:00:00 8.6 15 Oeste 28 Oeste 0.2 963.2 -0.6 93
2018-04-10 12:00:00 7.8 17 Oeste 30 Oeste 1 963.9 -0.8 95
2018-04-10 11:00:00 7.7 25 Oeste 45 Oeste 2.2 963.8 -1.8 92
2018-04-10 10:00:00 8.7 23 Sudoeste 37 Oeste 1.2 963.8 -3.5 98
2018-04-10 09:00:00 8 16 Sudoeste 36 Sudoeste 1 964.7 -4.2 98
2018-04-10 08:00:00 8.1 18 Sudoeste 42 Sudoeste 0.2 965.6 -4.4 96
2018-04-10 07:00:00 8.3 17 Sudoeste 39 Sudoeste 0.4 967.3 -3.8 96
2018-04-10 06:00:00 8.5 18 Sudoeste 32 Sudoeste 0.4 968.9 -3.5 96
2018-04-10 05:00:00 8.7 13 Sudoeste 24 Sudoeste 0 970 -3.2 94
2018-04-10 04:00:00 8.7 13 Sudoeste 25 Oeste 0 971.1 -2.9 95
2018-04-10 03:00:00 8.7 14 Oeste 22 Oeste 0 972.4 -2.1 96
2018-04-10 02:00:00 8 10 Oeste 21 Oeste 0 973.2 -1.5 95
2018-04-10 01:00:00 8.3 8 Oeste 12 Oeste 0 974 -0.5 95
2018-04-10 00:00:00 8.4 8 Oeste 18 Oeste 0 974.5 0.6 96
2018-04-09 23:00:00 9.3 7 Sudoeste 13 Sudoeste 0 974.7 0.7 95
2018-04-09 22:00:00 9 9 Sudoeste 18 Sudoeste 0 974.5 0.7 93
2018-04-09 21:00:00 9.6 8 Sudoeste 28 Oeste 0 973.9 0.3 90
2018-04-09 20:00:00 9.9 15 Oeste 24 Oeste 0 974 0.3 89
2018-04-09 19:00:00 9.7 11 Oeste 22 Sudoeste 0 973.8 -0.2 90
2018-04-09 18:00:00 9.5 17 Oeste 32 Oeste 0 973.6 -0.4 90
2018-04-09 17:00:00 9.7 24 Oeste 34 Oeste 0.4 973.7 -0.3 90
2018-04-09 16:00:00 9.3 15 Oeste 28 Sudoeste 0.4 974 0.2 92
2018-04-09 15:00:00 8.4 17 Oeste 30 Oeste 0.2 974 0.6 93
2018-04-09 14:00:00 7.7 22 Oeste 36 Oeste 0.4 974 1.3 93
2018-04-09 13:00:00 6.9 18 Oeste 27 Oeste 0.6 973.8 1.8 96
2018-04-09 12:00:00 6.5 17 Oeste 30 Oeste 0.6 973.4 1.9 96
2018-04-09 11:00:00 6.1 18 Oeste 33 Oeste 1.2 972.7 1.6 96
2018-04-09 10:00:00 6 19 Oeste 32 Oeste 0.4 972 1.1 96
2018-04-09 09:00:00 5.5 18 Sudoeste 32 Oeste 0.8 971.5 0.6 96
2018-04-09 08:00:00 5.3 16 Sudoeste 30 Sudoeste 0 971.1 0.2 93
2018-04-09 07:00:00 5.3 13 Sudoeste 33 Sudoeste 0 970.9 0.2 93
2018-04-09 06:00:00 5.5 17 Sudoeste 29 Sudoeste 0 970.9 0.2 93
2018-04-09 05:00:00 5.7 15 Sudoeste 28 Oeste 0 970.9 0.3 93
2018-04-09 04:00:00 5.8 17 Oeste 31 Sudoeste 0 970.7 0 93
2018-04-09 03:00:00 6.2 18 Oeste 30 Oeste 0 970.7 -0.5 93
2018-04-09 02:00:00 6.4 15 Sudoeste 29 Sudoeste 0 970.6 -0.2 93
2018-04-09 01:00:00 6.6 14 Sudoeste 29 Sudoeste 0 970.7 0.3 93
2018-04-09 00:00:00 7 15 Sudoeste 29 Sudoeste 0 971.2 0.6 93
2018-04-08 23:00:00 7.3 8 Sudoeste 19 Sudoeste 0 970.8 -0.1 94
2018-04-08 22:00:00 7.5 9 Noroeste 39 Oeste 1 970.4 -0.1 91
2018-04-08 21:00:00 8.4 25 Oeste 50 Oeste 2.4 970.6 -0.5 90
2018-04-08 20:00:00 10.1 17 Oeste 46 Oeste 0.4 970.9 -0.9 86
2018-04-08 19:00:00 13.7 16 Sudoeste 40 Sur 0 970.5 -2.1 64
2018-04-08 18:00:00 15.1 16 Sudoeste 41 Sudoeste 0 971.1 -2.3 61
2018-04-08 17:00:00 15 25 Oeste 42 Sudoeste 0 971.8 -2.5 59
2018-04-08 16:00:00 16.1 28 Oeste 44 Sudoeste 0 972.6 -2.1 54
2018-04-08 15:00:00 16.8 22 Oeste 34 Sudoeste 0 973.4 -1.6 60
2018-04-08 14:00:00 14.1 19 Sudoeste 36 Oeste 0 974.3 -0.6 66
2018-04-08 13:00:00 13.7 20 Oeste 27 Oeste 0 974.7 0 64
2018-04-08 12:00:00 12.5 15 Oeste 24 Oeste 0 975 0.7 71
2018-04-08 11:00:00 11.5 13 Oeste 22 Oeste 0.2 974.9 1.2 81
2018-04-08 10:00:00 9.4 9 Oeste 13 Oeste 0 974.7 1.5 91
2018-04-08 09:00:00 7.8 3 Oeste 10 Noroeste 0 974.3 1.4 96
2018-04-08 08:00:00 7.3 4 Noroeste 9 Oeste 0 973.7 1.1 98
2018-04-08 07:00:00 8.3 3 Noroeste 8 Oeste 0 973.2 0.9 98
2018-04-08 06:00:00 8.4 3 Noroeste 10 Oeste 0 972.9 0.7 98
2018-04-08 05:00:00 8.7 4 Oeste 8 Noroeste 0 972.6 0.5 98
2018-04-08 04:00:00 8.6 3 Noroeste 4 Noroeste 0 972.3 0 97
2018-04-08 03:00:00 8.7 2 Sur 5 Sudoeste 0 972.2 -0.3 96
2018-04-08 02:00:00 8.8 2 Norte 6 Norte 0 972.1 -0.2 96
2018-04-08 01:00:00 8.6 2 Norte 9 Este 0 972.3 0.6 96
2018-04-08 00:00:00 8.6 7 Este 11 Este 0 972.5 1.5 97
2018-04-07 23:00:00 8.3 7 Este 12 Este 0 972.3 1.4 97
2018-04-07 22:00:00 8.8 8 Este 13 Este 0 971.7 1.2 96
2018-04-07 21:00:00 9.6 8 Este 10 Este 0 971 1.1 92
2018-04-07 20:00:00 9.8 7 Sudeste 21 Oeste 0.6 970.9 0.8 93
2018-04-07 19:00:00 10 11 Oeste 42 Oeste 0 970.5 0.1 83
2018-04-07 18:00:00 13.1 6 Sudeste 16 Oeste 0 969.9 -0.6 73
2018-04-07 17:00:00 11.5 6 Noroeste 31 Norte 0 970.1 -1 80
2018-04-07 16:00:00 12.5 8 Noroeste 22 Norte 0.2 970.4 -1 79
2018-04-07 15:00:00 12.8 12 Noroeste 30 Oeste 0 970.5 -1 71
2018-04-07 14:00:00 13.5 13 Sudoeste 27 Sudoeste 0 971.1 -0.4 65
2018-04-07 13:00:00 13.1 10 Sudoeste 20 Sudoeste 0 971.4 -0.1 71
2018-04-07 12:00:00 11.5 7 Sudoeste 13 Sudoeste 0 971.5 0.5 84
2018-04-07 11:00:00 10.1 6 Oeste 15 Oeste 0 971.5 0.9 91
2018-04-07 10:00:00 9.3 5 Oeste 11 Noroeste 0 971.5 0.5 92
2018-04-07 09:00:00 8.5 6 Noroeste 12 Noroeste 0.2 971 0.5 96
2018-04-07 08:00:00 8.4 5 Oeste 12 Oeste 0.4 970.6 -0.4 96
2018-04-07 07:00:00 8.3 3 Oeste 11 Oeste 0 971 0.1 95
2018-04-07 06:00:00 8.4 5 Oeste 12 Sudoeste 0 970.5 -0.8 95
2018-04-07 05:00:00 8.6 6 Sudoeste 12 Sudoeste 0 971 -0.2 95
2018-04-07 04:00:00 9.1 3 Sudoeste 10 Sudoeste 0 970.9 -0.6 95
2018-04-07 03:00:00 9.6 5 Sudoeste 11 Sur 0 971.3 -0.2 95
2018-04-07 02:00:00 10 3 Sudeste 12 Sudoeste 0 971.2 -0.4 96
2018-04-07 01:00:00 10.4 4 Sudoeste 9 Sur 0 971.5 0.5 95
2018-04-07 00:00:00 10.5 0 Calma 9 Oeste 0.2 971.5 0.9 95
2018-04-06 23:00:00 10.6 6 Oeste 9 Oeste 0.6 971.6 1.7 95
2018-04-06 22:00:00 10.4 4 Oeste 22 Oeste 0.8 971 2 95
2018-04-06 21:00:00 10.8 12 Oeste 34 Oeste 0.2 970.6 2.3 91
2018-04-06 20:00:00 12.3 18 Oeste 55 Oeste 0 969.9 1.5 73
2018-04-06 19:00:00 15.1 32 Oeste 62 Sudoeste 0 969 0.1 68
2018-04-06 18:00:00 20 21 Sudoeste 45 Oeste 0 968.3 -1.6 46
2018-04-06 17:00:00 20.1 23 Sudoeste 41 Sudoeste 0 968.4 -2.7 52
2018-04-06 16:00:00 19.9 18 Sur 46 Sudeste 0 968.9 -3.2 52
2018-04-06 15:00:00 19.6 18 Sur 40 Sur 0 969.9 -3 54
2018-04-06 14:00:00 19.1 17 Sur 33 Sur 0 971.1 -2.4 55
2018-04-06 13:00:00 17.1 16 Sudeste 32 Sudeste 0 972.1 -1.5 58
2018-04-06 12:00:00 16.7 13 Sudeste 23 Este 0 972.9 -0.5 62
2018-04-06 11:00:00 14.3 8 Este 15 Noroeste 0 973.5 0 73
2018-04-06 10:00:00 11.7 5 Oeste 18 Este 0 973.6 0.2 79
2018-04-06 09:00:00 10.1 10 Este 17 Nordeste 0 973.4 -0.2 89
2018-04-06 08:00:00 8.6 12 Este 15 Este 0 973.5 -0.4 94
2018-04-06 07:00:00 9.1 2 Oeste 6 Oeste 0 973.4 -0.6 88
2018-04-06 06:00:00 9.9 3 Oeste 8 Sur 0 973.6 -0.9 83
2018-04-06 05:00:00 10.2 3 Oeste 10 Noroeste 0 973.9 -0.8 80
2018-04-06 04:00:00 11.1 7 Noroeste 12 Noroeste 0 974 -1.2 79
2018-04-06 03:00:00 10.6 5 Noroeste 10 Oeste 0 974.5 -1.2 81
2018-04-06 02:00:00 12.2 3 Este 8 Este 0 974.7 -1.5 71
2018-04-06 01:00:00 12.7 2 Nordeste 9 Este 0 975.2 -0.9 71
2018-04-06 00:00:00 13.7 6 Este 14 Este 0 975.7 -0.6 68
2018-04-05 23:00:00 14.4 7 Este 17 Este 0 976.2 -0.4 67
2018-04-05 22:00:00 14.6 9 Este 15 Este 0 976.1 -0.8 68
2018-04-05 21:00:00 16.2 9 Este 24 Este 0 976.3 -1.1 63
2018-04-05 20:00:00 18.8 10 Este 29 Sudeste 0 976.6 -1.5 54
2018-04-05 19:00:00 19.8 13 Este 26 Sudeste 0 976.9 -2.7 49
2018-04-05 18:00:00 19.3 15 Sudeste 29 Sudeste 0 977.4 -2.9 51
2018-04-05 17:00:00 19.6 12 Sudeste 26 Este 0 978.1 -3.1 49
2018-04-05 16:00:00 19.5 7 Sudeste 21 Este 0 979.6 -2.4 46
2018-04-05 15:00:00 18.4 10 Sudeste 26 Sudeste 0 980.3 -2.4 54
2018-04-05 14:00:00 17.4 13 Este 31 Sudeste 0 981.2 -1.9 55
2018-04-05 13:00:00 15.8 13 Sudeste 22 Este 0 982 -0.8 63
2018-04-05 12:00:00 13.8 12 Este 23 Este 0 982.7 -0.1 74
2018-04-05 11:00:00 11.3 11 Este 21 Este 0 983.1 0.7 82
2018-04-05 10:00:00 8.2 6 Este 12 Este 0 982.8 0.8 95
2018-04-05 09:00:00 5.3 0 Calma 4 Sudeste 0 982.8 0.6 95
2018-04-05 08:00:00 5.3 2 Sudoeste 10 Este 0 982.4 0.2 92
2018-04-05 07:00:00 6.4 8 Nordeste 11 Este 0 982 -0.6 93
2018-04-05 06:00:00 5.8 2 Este 6 Este 0 982.2 -0.7 93
2018-04-05 05:00:00 6.6 3 Nordeste 8 Noroeste 0 982.2 -0.8 91
2018-04-05 04:00:00 7.1 0 Calma 5 Este 0 982.6 -0.6 85
2018-04-05 03:00:00 7.8 3 Noroeste 9 Este 0 982.9 -0.1 82
2018-04-05 02:00:00 8.6 5 Este 12 Norte 0 983 0.3 79
2018-04-05 01:00:00 9.7 5 Noroeste 14 Noroeste 0 983.2 0.9 77
2018-04-05 00:00:00 10.2 9 Noroeste 18 Norte 0 983 1.5 76
2018-04-04 23:00:00 11.1 8 Noroeste 20 Oeste 0 982.7 1.5 73
2018-04-04 22:00:00 11.9 9 Noroeste 18 Noroeste 0 982.3 1.7 71
2018-04-04 21:00:00 13.5 7 Noroeste 21 Oeste 0 981.5 1.5 68
2018-04-04 20:00:00 16 9 Oeste 43 Oeste 0 981.2 1.7 58
2018-04-04 19:00:00 16.6 25 Oeste 45 Oeste 0 980.6 1.3 57
2018-04-04 18:00:00 15.7 30 Oeste 52 Oeste 0.2 980 0.9 61
2018-04-04 17:00:00 14.9 26 Oeste 54 Sudoeste 0 979.5 0.4 73
2018-04-04 16:00:00 16.6 32 Oeste 57 Oeste 0 979.3 0.1 64
2018-04-04 15:00:00 16.2 30 Oeste 50 Oeste 0.2 979.1 0.4 67
2018-04-04 14:00:00 15.3 25 Sudoeste 47 Oeste 0 979.1 1 66
2018-04-04 13:00:00 14.4 22 Sudoeste 39 Sudoeste 0 979.2 2 77
2018-04-04 12:00:00 13.3 22 Sudoeste 39 Sudoeste 0 978.7 2.2 76
2018-04-04 11:00:00 12.1 19 Sudoeste 36 Sudoeste 0 978.1 2.5 84
2018-04-04 10:00:00 10.6 20 Sudoeste 36 Sudoeste 0 977.2 2.2 89
2018-04-04 09:00:00 9.9 19 Sudoeste 33 Sudoeste 0 976.5 2 91
2018-04-04 08:00:00 9 11 Sudoeste 23 Sudoeste 0 975.6 1.3 93
2018-04-04 07:00:00 9.2 15 Sudoeste 39 Sudoeste 0 975 0.9 92
2018-04-04 06:00:00 9.6 12 Sudoeste 33 Sudoeste 0 974.5 0.8 91
2018-04-04 05:00:00 9.5 13 Sudoeste 31 Sudoeste 0 974.3 0.7 92
2018-04-04 04:00:00 9.7 17 Sudoeste 33 Sudoeste 0 974.1 0.8 92
2018-04-04 03:00:00 9.3 15 Sudoeste 34 Sudoeste 0 973.7 0.6 94
2018-04-04 02:00:00 8.6 11 Sudoeste 22 Sudoeste 0 973.6 1.1 95
2018-04-04 01:00:00 9.4 16 Sudoeste 32 Oeste 0.2 973.3 1.3 96
2018-04-04 00:00:00 8.5 10 Sudoeste 28 Sudoeste 0 973.1 1.7 95
2018-04-03 23:00:00 8.5 13 Sudoeste 25 Sudoeste 0 972.5 1.1 93
2018-04-03 22:00:00 9.4 12 Sudoeste 25 Sudoeste 0.2 972 1.5 93
2018-04-03 21:00:00 9.3 12 Sudoeste 49 Oeste 1.8 971.4 1.4 93
2018-04-03 20:00:00 10.1 33 Oeste 53 Oeste 1 971.4 0.6 92
2018-04-03 19:00:00 10.7 25 Oeste 84 Oeste 1.6 970.5 0 92
2018-04-03 18:00:00 16.5 22 Sudoeste 48 Sudoeste 0 970 -1 64
2018-04-03 17:00:00 13.6 31 Sudoeste 57 Oeste 0 970.8 -0.6 72
2018-04-03 16:00:00 16.7 23 Sudoeste 58 Sudoeste 0 970.5 -1.2 62
2018-04-03 15:00:00 15.5 21 Sudoeste 39 Sudoeste 0 971 -0.4 81
2018-04-03 14:00:00 11.9 19 Oeste 44 Sudoeste 2.8 971.4 0.2 94
2018-04-03 13:00:00 14.3 22 Sudoeste 47 Sudoeste 0.2 971.7 0.6 73
2018-04-03 12:00:00 14.4 19 Sudoeste 41 Sur 0 971.4 0.5 71
2018-04-03 11:00:00 14.9 17 Sudoeste 36 Sur 0 971.2 0.7 75
2018-04-03 10:00:00 12.8 13 Sudoeste 27 Sudoeste 0 971.1 1 87
2018-04-03 09:00:00 11.2 14 Sur 27 Sudoeste 0 970.9 0.5 93
2018-04-03 08:00:00 11 11 Sur 28 Sudoeste 0 970.5 -0.3 94
2018-04-03 07:00:00 10.9 12 Sudoeste 24 Sudoeste 0.2 970.1 -1.2 95
2018-04-03 06:00:00 10.8 4 Sudoeste 16 Sudoeste 0.2 970.4 -1 96
2018-04-03 05:00:00 10.5 8 Sudeste 13 Sudeste 0 970.8 -0.6 94
2018-04-03 04:00:00 10.7 9 Sur 14 Sur 0 971.3 -0.1 92
2018-04-03 03:00:00 11.2 8 Sur 19 Sudoeste 0 971.4 0 90
2018-04-03 02:00:00 11.9 14 Sudoeste 33 Sudoeste 0 971.4 0.4 89
2018-04-03 01:00:00 11.9 13 Sudoeste 27 Sudoeste 0 971.4 0.9 86
2018-04-03 00:00:00 12.4 10 Sudoeste 24 Sudoeste 0 971.4 1.7 85
2018-04-02 23:00:00 12.9 7 Sudoeste 13 Sur 0 971 1.6 90
2018-04-02 22:00:00 13.3 4 Sur 9 Sudoeste 0 970.5 1.3 89
2018-04-02 21:00:00 13.9 5 Sudoeste 26 Sudoeste 0 969.7 0.6 89
2018-04-02 20:00:00 14.3 4 Oeste 24 Oeste 4.4 969.4 0.2 93
2018-04-02 19:00:00 13.8 6 Noroeste 40 Oeste 0 969.2 -0.4 88
2018-04-02 18:00:00 16 14 Sudoeste 38 Sudoeste 0 969.1 -0.9 75
2018-04-02 17:00:00 15.2 10 Sudoeste 29 Sur 0.2 969.2 -1.4 77
2018-04-02 16:00:00 14.9 10 Sur 28 Sur 0.2 969.6 -1.6 75
2018-04-02 15:00:00 15.5 15 Sur 27 Sudeste 0 970 -1.5 66
2018-04-02 14:00:00 16.4 12 Sur 27 Sudoeste 0 970.6 -1.1 62
2018-04-02 13:00:00 16.3 19 Sur 31 Sudeste 0 971.2 -0.3 64
2018-04-02 12:00:00 15.4 14 Sur 26 Sudoeste 0 971.5 0.6 64
2018-04-02 11:00:00 13.8 9 Sur 17 Sudeste 0 971.7 1.4 70
2018-04-02 10:00:00 12.4 5 Este 10 Sudeste 0 971.5 1 76
2018-04-02 09:00:00 11.1 6 Este 11 Este 0 970.9 0.5 82
2018-04-02 08:00:00 9.9 5 Este 13 Este 0 970.3 -0.4 83
2018-04-02 07:00:00 9.5 0 Calma 10 Sur 0 970.5 -0.4 83
2018-04-02 06:00:00 10 3 Sudeste 10 Sur 0 970.4 -0.5 82
2018-04-02 05:00:00 11.1 2 Sudeste 8 Oeste 0 970.7 -0.8 77
2018-04-02 04:00:00 11.7 3 Oeste 9 Oeste 0 970.9 -1 74
2018-04-02 03:00:00 12.2 4 Noroeste 7 Noroeste 0 970.9 -1.3 67
2018-04-02 02:00:00 13.2 3 Sur 12 Oeste 0 971.5 -1 61
2018-04-02 01:00:00 14.4 6 Este 12 Este 0 971.9 -0.7 57
2018-04-02 00:00:00 14.3 8 Este 15 Este 0 972.2 -0.4 57
2018-04-01 23:00:00 14.5 12 Este 22 Este 0 972.5 -0.1 58
2018-04-01 22:00:00 14.4 10 Este 16 Este 0 972.6 -0.4 62
2018-04-01 21:00:00 14.7 9 Este 18 Este 0 972.6 -0.9 63
2018-04-01 20:00:00 16.9 11 Este 19 Este 0 972.6 -1.9 57
2018-04-01 19:00:00 18.7 9 Sur 21 Sudeste 0 973 -2.4 48
2018-04-01 18:00:00 18.6 10 Sur 17 Sudeste 0 973.5 -3 49
2018-04-01 17:00:00 18.8 4 Sur 23 Este 0 974.5 -2.7 46
2018-04-01 16:00:00 18 14 Sudeste 26 Este 0 975.4 -2.9 52
2018-04-01 15:00:00 17.5 15 Sudeste 31 Sudeste 0 976.5 -2.7 52
2018-04-01 14:00:00 16.5 14 Sudeste 37 Sudeste 0 977.2 -2.2 51
2018-04-01 13:00:00 15.3 14 Este 27 Sudeste 0 978.3 -1.3 54
2018-04-01 12:00:00 13 10 Este 22 Este 0 979.2 -0.3 62
2018-04-01 11:00:00 10.8 13 Este 22 Este 0 979.4 0.5 73
2018-04-01 10:00:00 8.9 12 Este 17 Este 0 979.6 0.6 76
2018-04-01 09:00:00 6 2 Este 7 Noroeste 0 979.5 0.3 87
2018-04-01 08:00:00 5.6 3 Norte 9 Este 0 978.9 -0.9 86
2018-04-01 07:00:00 5.8 0 Calma 13 Este 0 979 -1.7 86
2018-04-01 06:00:00 6 10 Este 12 Este 0 979.2 -1.9 85
2018-04-01 05:00:00 7.6 9 Este 11 Este 0 979.8 -1.8 78
2018-04-01 04:00:00 8 0 Calma 13 Oeste 0 980.7 -0.9 75
2018-04-01 03:00:00 8.8 3 Este 6 Este 0 981.1 -0.4 71
2018-04-01 02:00:00 9 4 Este 6 Este 0 981.6 0 71
2018-04-01 01:00:00 9.4 0 Calma 8 Oeste 0 981.6 0.8 70
2018-04-01 00:00:00 9.6 4 Sudoeste 6 Sur 0 981.5 1.4 68
2018-03-31 23:00:00 10.1 2 Oeste 6 Sudoeste 0 981.6 1.6 64
2018-03-31 22:00:00 11 3 Oeste 13 Sudoeste 0 980.8 1 61
2018-03-31 21:00:00 12.8 6 Sudoeste 19 Oeste 0 980.1 0.2 57
2018-03-31 20:00:00 14.9 10 Oeste 24 Oeste 0 980 -0.1 51
2018-03-31 19:00:00 16 12 Oeste 29 Oeste 0 979.8 -0.5 44
2018-03-31 18:00:00 16.1 12 Sudoeste 27 Oeste 0 979.9 -0.6 45
2018-03-31 17:00:00 16 17 Oeste 33 Oeste 0 980.1 -0.8 45
2018-03-31 16:00:00 15.2 16 Oeste 34 Oeste 0 980.3 -1.1 49
2018-03-31 15:00:00 14.3 17 Oeste 31 Oeste 0 980.5 -0.2 46
2018-03-31 14:00:00 13.4 13 Oeste 32 Oeste 0 980.9 0.8 52
2018-03-31 13:00:00 11.8 14 Oeste 31 Oeste 0 981.4 2.1 59
2018-03-31 12:00:00 10.8 12 Oeste 26 Oeste 0 980.7 2.4 67
2018-03-31 11:00:00 9.1 16 Oeste 30 Oeste 0 980.1 2.9 75
2018-03-31 10:00:00 7.2 6 Sudoeste 12 Sudoeste 0 979.3 3.1 87
2018-03-31 09:00:00 4.7 4 Sudoeste 17 Oeste 0 978.3 2.8 94
2018-03-31 08:00:00 3.8 11 Oeste 17 Sudoeste 0 977.2 2.3 92
2018-03-31 07:00:00 4.7 8 Sudoeste 14 Sudoeste 0 976.2 1.7 92
2018-03-31 06:00:00 4.6 2 Noroeste 10 Sudoeste 0 975.5 1.3 91
2018-03-31 05:00:00 4.7 3 Este 18 Oeste 0 974.9 1.2 91
2018-03-31 04:00:00 6.1 10 Oeste 28 Oeste 0 974.5 1.8 88
2018-03-31 03:00:00 4.4 5 Sudoeste 23 Oeste 0 974.2 2 89
2018-03-31 02:00:00 5.5 9 Oeste 25 Noroeste 0 973.7 2.2 91
2018-03-31 01:00:00 5 12 Oeste 25 Oeste 0 972.7 2.2 92
2018-03-31 00:00:00 5.6 16 Oeste 31 Oeste 0 972.2 2.7 90
2018-03-30 23:00:00 5.8 12 Oeste 19 Sudoeste 0 971.5 2.6 92
2018-03-30 22:00:00 7 17 Oeste 54 Oeste 1 970.5 1.1 89
2018-03-30 21:00:00 8 27 Oeste 43 Oeste 0 969.5 -0.1 87
2018-03-30 20:00:00 9 27 Oeste 46 Oeste 0 968.9 -1.2 83
2018-03-30 19:00:00 8.2 30 Oeste 64 Oeste 1 969.4 -1.6 87
2018-03-30 18:00:00 9 15 Sudoeste 50 Sudoeste 0.4 969.6 -1.9 84
2018-03-30 17:00:00 11.4 26 Sudoeste 46 Sudoeste 0 970.1 -1.7 63
2018-03-30 16:00:00 11.3 26 Oeste 51 Sudoeste 0 971 -1.9 58
2018-03-30 15:00:00 11 25 Oeste 46 Sudoeste 0 971.5 -1.9 57
2018-03-30 14:00:00 11.4 24 Oeste 39 Sudoeste 0 971.8 -1.8 54
2018-03-30 13:00:00 10.9 22 Oeste 34 Oeste 0 972.9 -0.6 57
2018-03-30 12:00:00 8.7 19 Oeste 33 Oeste 0 973.4 0.4 66
2018-03-30 11:00:00 8.1 14 Oeste 23 Sudoeste 0 973.6 1 71
2018-03-30 10:00:00 6.5 5 Sudoeste 15 Oeste 0 973.5 1.3 81
2018-03-30 09:00:00 4.5 3 Oeste 16 Oeste 0 973 0.8 89
2018-03-30 08:00:00 4.5 10 Noroeste 17 Noroeste 0 972.6 0.3 88
2018-03-30 07:00:00 4.4 11 Noroeste 19 Noroeste 0 972.2 0.2 92
2018-03-30 06:00:00 5.6 7 Noroeste 24 Oeste 0 972.2 0 91
2018-03-30 05:00:00 6.3 8 Noroeste 33 Oeste 0 972.3 0.2 94
2018-03-30 04:00:00 7 24 Oeste 49 Noroeste 1 972 -0.3 88
2018-03-30 03:00:00 8.6 21 Oeste 36 Sudoeste 0 972.2 -0.6 90
2018-03-30 02:00:00 8.6 20 Sudoeste 44 Sudoeste 0.2 972.1 -1 91
2018-03-30 01:00:00 9.3 22 Sudoeste 40 Sudoeste 0 972.3 -0.8 79
2018-03-30 00:00:00 9.3 14 Sudoeste 39 Sudoeste 0 972.8 -0.2 81
2018-03-29 23:00:00 9.7 18 Sudoeste 44 Sudoeste 0 973.1 0.1 80
2018-03-29 22:00:00 10.6 17 Sudoeste 39 Oeste 0 973.1 -0.1 66
2018-03-29 21:00:00 11.5 26 Oeste 42 Sudoeste 0 973 -0.6 58
2018-03-29 20:00:00 12.7 17 Sudoeste 36 Oeste 0 973 -1 50
2018-03-29 19:00:00 14.3 22 Sudoeste 46 Sudoeste 0 973.2 -1.8 46
2018-03-29 18:00:00 15.7 27 Sudoeste 44 Oeste 0 973.6 -2.4 41
2018-03-29 17:00:00 16 24 Oeste 45 Oeste 0 974 -3 41
2018-03-29 16:00:00 16 18 Sudoeste 35 Oeste 0 975 -2.8 44
2018-03-29 15:00:00 15.7 15 Sudoeste 33 Oeste 0 976 -2.2 46
2018-03-29 14:00:00 13.8 14 Oeste 32 Sudoeste 0 977 -1.3 48
2018-03-29 13:00:00 12.6 13 Oeste 24 Oeste 0 977.8 -0.4 45
2018-03-29 12:00:00 11.9 14 Sudoeste 23 Oeste 0 978.2 0.2 49
2018-03-29 11:00:00 10.1 8 Noroeste 32 Noroeste 0 978.3 0.4 53
2018-03-29 10:00:00 8.6 17 Noroeste 29 Noroeste 0 978.2 0.5 62
2018-03-29 09:00:00 6 8 Noroeste 24 Noroeste 0 978 0.1 74
2018-03-29 08:00:00 6.5 13 Noroeste 21 Noroeste 0 977.9 0.1 71
2018-03-29 07:00:00 6.6 8 Noroeste 15 Noroeste 0 977.7 -0.5 76
2018-03-29 06:00:00 7.2 7 Noroeste 12 Noroeste 0 977.9 -0.7 87
2018-03-29 05:00:00 7.7 8 Oeste 13 Oeste 0 977.8 -1.1 88
2018-03-29 04:00:00 8.3 5 Oeste 16 Noroeste 0 978.2 -1.2 88
2018-03-29 03:00:00 9 7 Noroeste 16 Noroeste 0 978.6 -1.1 86
2018-03-29 02:00:00 10.3 6 Oeste 19 Oeste 0 978.9 -0.7 81
2018-03-29 01:00:00 10.5 9 Noroeste 19 Noroeste 0 979.4 0 81
2018-03-29 00:00:00 12 9 Noroeste 15 Noroeste 0 979.7 0.7 75
2018-03-28 23:00:00 13 7 Noroeste 18 Noroeste 0 979.6 1 68
2018-03-28 22:00:00 14.3 12 Noroeste 26 Norte 0 979.4 0.6 62
2018-03-28 21:00:00 15.1 9 Noroeste 27 Noroeste 0 979 0.1 61
2018-03-28 20:00:00 17 9 Sudoeste 35 Oeste 0 978.6 -0.7 55
2018-03-28 19:00:00 18.9 22 Oeste 36 Oeste 0 978.8 -1.3 54
2018-03-28 18:00:00 20.1 26 Sudoeste 44 Sudoeste 0 978.9 -2.2 51
2018-03-28 17:00:00 21.4 22 Oeste 38 Oeste 0 979.3 -2.8 47
2018-03-28 16:00:00 21.2 24 Oeste 36 Oeste 0 980.1 -2.9 38
2018-03-28 15:00:00 21.2 20 Oeste 37 Oeste 0 981.1 -2.8 30
2018-03-28 14:00:00 20.7 19 Oeste 30 Sudoeste 0 982.1 -1.8 32
2018-03-28 13:00:00 19.3 7 Sudoeste 18 Oeste 0 983 -1.1 38
2018-03-28 12:00:00 15.9 5 Sudoeste 11 Oeste 0 983.9 -0.5 48
2018-03-28 11:00:00 12.4 3 Oeste 8 Oeste 0 983.9 -0.5 59
2018-03-28 10:00:00 10.5 3 Oeste 5 Oeste 0 984.1 -0.4 60
2018-03-28 09:00:00 7.7 0 Calma 7 Sudoeste 0 984.4 -0.5 70
2018-03-28 08:00:00 8.2 5 Oeste 8 Noroeste 0 984.4 -0.9 66
2018-03-28 07:00:00 8.4 3 Noroeste 9 Noroeste 0 984.5 -1.3 66
2018-03-28 06:00:00 9.1 7 Noroeste 12 Noroeste 0 984.9 -1.7 66
2018-03-28 05:00:00 10.1 3 Norte 20 Norte 0 985.3 -1.9 65
2018-03-28 04:00:00 12.7 12 Norte 22 Noroeste 0 985.8 -1.9 52
2018-03-28 03:00:00 14.4 11 Norte 15 Noroeste 0 986.6 -1.2 48
2018-03-28 02:00:00 14.6 9 Norte 17 Norte 0 987.2 -0.6 44
2018-03-28 01:00:00 14.3 9 Norte 16 Norte 0 987.7 0.3 49
2018-03-28 00:00:00 14.4 6 Noroeste 10 Noroeste 0 987.8 0.5 50
2018-03-27 23:00:00 15.9 4 Este 16 Norte 0 987.8 0.4 46
2018-03-27 22:00:00 18 10 Norte 14 Nordeste 0 987.4 0 34
2018-03-27 21:00:00 19.6 9 Nordeste 25 Norte 0 987.3 -0.2 28
2018-03-27 20:00:00 22.1 13 Noroeste 35 Noroeste 0 987.4 -0.2 26
2018-03-27 19:00:00 23.4 16 Noroeste 33 Noroeste 0 987.4 -1 22
2018-03-27 18:00:00 24.2 14 Norte 36 Noroeste 0 987.5 -1.5 20
2018-03-27 17:00:00 23.9 15 Norte 32 Noroeste 0 987.6 -1.8 26
2018-03-27 16:00:00 23.3 15 Noroeste 27 Noroeste 0 988.4 -1.3 31
2018-03-27 15:00:00 22.1 8 Noroeste 21 Noroeste 0 989 -1 38
2018-03-27 14:00:00 20.8 11 Noroeste 31 Noroeste 0 989.4 -0.6 38
2018-03-27 13:00:00 19.1 11 Noroeste 32 Noroeste 0 989.7 -0.1 45
2018-03-27 12:00:00 17.2 15 Noroeste 24 Noroeste 0 990 0.4 46
2018-03-27 11:00:00 13.6 12 Oeste 24 Noroeste 0 990 0.8 65
2018-03-27 10:00:00 10 6 Oeste -- -- 0 989.8 0.5 82
2018-03-27 09:00:00 7.8 5 Sur 10 Oeste 0 989.6 0.5 84
2018-03-27 08:00:00 8.2 4 Oeste 8 Oeste 0 989.2 -0.2 82
2018-03-27 07:00:00 8.7 3 Sudoeste 8 Oeste 0 989.3 0 82
2018-03-27 06:00:00 9.6 6 Norte 13 Noroeste 0 989.1 -0.3 76
2018-03-27 05:00:00 9.4 3 Oeste 24 Noroeste 0 989.4 -0.2 78
2018-03-27 04:00:00 10.8 10 Norte 22 Norte 0 989.3 0.2 73
2018-03-27 03:00:00 11.5 3 Norte 15 Noroeste 0 989.4 0.2 67
2018-03-27 02:00:00 12.4 6 Oeste 21 Sudoeste 0 989.6 0.8 64
2018-03-27 01:00:00 12.5 11 Noroeste 18 Noroeste 0 989.1 0.8 62
2018-03-27 00:00:00 12.8 5 Noroeste 10 Noroeste 0 989.2 1.4 53
2018-03-26 23:00:00 14.2 5 Nordeste 15 Norte 0 988.8 1.4 46
2018-03-26 22:00:00 14.7 9 Norte 17 Nordeste 0 988.3 1.6 42
2018-03-26 21:00:00 15.4 6 Nordeste 39 Noroeste 0 987.8 1.1 39
2018-03-26 20:00:00 17.3 13 Noroeste 26 Noroeste 0 987.4 0.7 35
2018-03-26 19:00:00 18.7 8 Norte 27 Noroeste 0 986.7 -0.2 30
2018-03-26 18:00:00 18.8 14 Noroeste 29 Noroeste 0 986.7 -0.6 28
2018-03-26 17:00:00 18.5 12 Noroeste 31 Noroeste 0 986.7 -0.9 31
2018-03-26 16:00:00 17.6 14 Noroeste 28 Noroeste 0 986.9 -0.5 29
2018-03-26 15:00:00 16.6 7 Oeste 24 Noroeste 0 987.3 -0.4 38
2018-03-26 14:00:00 15.3 10 Noroeste -- -- 0 987.6 0.6 40
2018-03-26 13:00:00 13.9 9 Noroeste 22 Noroeste 0 987.4 0.5 43
2018-03-26 12:00:00 12.7 11 Noroeste 23 Norte 0 987.7 1.7 46
2018-03-26 11:00:00 10.2 12 Noroeste 23 Norte 0 987 1.6 53
2018-03-26 10:00:00 7.8 4 Noroeste 24 Norte 0 986.9 2.1 64
2018-03-26 09:00:00 5.5 14 Norte 28 Noroeste 0 986 1.9 72
2018-03-26 08:00:00 4.7 13 Noroeste 21 Noroeste 0 985.4 1.5 75
2018-03-26 07:00:00 5.2 3 Sudoeste 27 Norte 0 984.8 1.2 72
2018-03-26 06:00:00 7.4 15 Norte 30 Norte 0 984.1 0.8 61
2018-03-26 05:00:00 6.4 9 Noroeste 29 Norte 0 983.9 0.6 68
2018-03-26 04:00:00 8.2 15 Norte 28 Norte 0 983.6 1.3 61
2018-03-26 03:00:00 9 14 Norte 27 Norte 0 983.3 1.5 57
2018-03-26 02:00:00 8.8 7 Nordeste 15 Nordeste 0 983.3 2.2 59
2018-03-26 01:00:00 9.5 6 Norte 27 Noroeste 0 982.3 2 57
2018-03-26 00:00:00 10.2 14 Noroeste 32 Norte 0 981.8 2.5 55